sensor_id;sensor_type;location;lat;lon;timestamp;temperature;humidity
66343;DHT22;53144;51.524;5.080;2022-09-03T00:01:32;15.15;66.82
66343;DHT22;53144;51.524;5.080;2022-09-03T00:04:07;15.08;69.40
66343;DHT22;53144;51.524;5.080;2022-09-03T00:06:38;15.15;70.14
66343;DHT22;53144;51.524;5.080;2022-09-03T00:09:10;15.06;68.48
66343;DHT22;53144;51.524;5.080;2022-09-03T00:11:46;15.09;70.51
66343;DHT22;53144;51.524;5.080;2022-09-03T00:14:22;15.06;69.27
66343;DHT22;53144;51.524;5.080;2022-09-03T00:16:53;14.96;68.18
66343;DHT22;53144;51.524;5.080;2022-09-03T00:19:24;14.93;70.64
66343;DHT22;53144;51.524;5.080;2022-09-03T00:22:06;14.89;69.09
66343;DHT22;53144;51.524;5.080;2022-09-03T00:24:35;14.75;72.99
66343;DHT22;53144;51.524;5.080;2022-09-03T00:27:10;14.74;68.39
66343;DHT22;53144;51.524;5.080;2022-09-03T00:29:42;14.71;70.13
66343;DHT22;53144;51.524;5.080;2022-09-03T00:32:23;14.78;68.91
66343;DHT22;53144;51.524;5.080;2022-09-03T00:34:56;14.79;69.51
66343;DHT22;53144;51.524;5.080;2022-09-03T00:37:23;14.89;71.41
66343;DHT22;53144;51.524;5.080;2022-09-03T00:39:48;14.84;71.43
66343;DHT22;53144;51.524;5.080;2022-09-03T00:45:12;14.65;69.64
66343;DHT22;53144;51.524;5.080;2022-09-03T00:50:39;14.50;72.49
66343;DHT22;53144;51.524;5.080;2022-09-03T00:53:29;14.41;72.21
66343;DHT22;53144;51.524;5.080;2022-09-03T00:58:58;14.40;71.16
66343;DHT22;53144;51.524;5.080;2022-09-03T01:01:55;14.52;71.90
66343;DHT22;53144;51.524;5.080;2022-09-03T01:04:47;14.48;69.67
66343;DHT22;53144;51.524;5.080;2022-09-03T01:13:31;14.34;72.65
66343;DHT22;53144;51.524;5.080;2022-09-03T01:19:00;14.33;70.57
66343;DHT22;53144;51.524;5.080;2022-09-03T01:27:29;14.33;70.08
66343;DHT22;53144;51.524;5.080;2022-09-03T01:32:36;14.26;69.94
66343;DHT22;53144;51.524;5.080;2022-09-03T01:46:40;14.00;71.62
66343;DHT22;53144;51.524;5.080;2022-09-03T01:49:32;13.98;74.05
66343;DHT22;53144;51.524;5.080;2022-09-03T01:52:10;13.85;74.10
66343;DHT22;53144;51.524;5.080;2022-09-03T01:54:50;13.79;73.93
66343;DHT22;53144;51.524;5.080;2022-09-03T02:00:11;13.76;73.80
66343;DHT22;53144;51.524;5.080;2022-09-03T02:02:40;13.83;73.63
66343;DHT22;53144;51.524;5.080;2022-09-03T02:05:24;13.82;73.69
66343;DHT22;53144;51.524;5.080;2022-09-03T02:07:58;13.80;73.68
66343;DHT22;53144;51.524;5.080;2022-09-03T02:10:41;13.78;73.74
66343;DHT22;53144;51.524;5.080;2022-09-03T02:13:16;13.72;74.08
66343;DHT22;53144;51.524;5.080;2022-09-03T02:15:44;13.75;74.03
66343;DHT22;53144;51.524;5.080;2022-09-03T02:18:20;13.79;72.32
66343;DHT22;53144;51.524;5.080;2022-09-03T02:20:47;13.83;71.94
66343;DHT22;53144;51.524;5.080;2022-09-03T02:23:14;13.86;71.88
66343;DHT22;53144;51.524;5.080;2022-09-03T02:25:47;13.95;72.31
66343;DHT22;53144;51.524;5.080;2022-09-03T02:28:14;13.99;71.70
66343;DHT22;53144;51.524;5.080;2022-09-03T02:30:41;13.85;75.55
66343;DHT22;53144;51.524;5.080;2022-09-03T02:33:07;13.79;74.38
66343;DHT22;53144;51.524;5.080;2022-09-03T02:35:33;13.86;73.08
66343;DHT22;53144;51.524;5.080;2022-09-03T02:38:08;13.79;74.58
66343;DHT22;53144;51.524;5.080;2022-09-03T02:40:34;13.79;72.73
66343;DHT22;53144;51.524;5.080;2022-09-03T02:42:59;13.73;75.78
66343;DHT22;53144;51.524;5.080;2022-09-03T02:45:28;13.69;72.59
66343;DHT22;53144;51.524;5.080;2022-09-03T02:47:56;13.62;74.81
66343;DHT22;53144;51.524;5.080;2022-09-03T02:50:23;13.55;74.41
66343;DHT22;53144;51.524;5.080;2022-09-03T02:52:48;13.61;73.68
66343;DHT22;53144;51.524;5.080;2022-09-03T02:55:14;13.58;74.04
66343;DHT22;53144;51.524;5.080;2022-09-03T02:57:40;13.57;74.64
66343;DHT22;53144;51.524;5.080;2022-09-03T03:00:06;13.54;75.98
66343;DHT22;53144;51.524;5.080;2022-09-03T03:02:32;13.45;76.56
66343;DHT22;53144;51.524;5.080;2022-09-03T03:04:57;13.40;74.38
66343;DHT22;53144;51.524;5.080;2022-09-03T03:07:23;13.35;75.41
66343;DHT22;53144;51.524;5.080;2022-09-03T03:09:48;13.35;75.33
66343;DHT22;53144;51.524;5.080;2022-09-03T03:12:14;13.35;76.37
66343;DHT22;53144;51.524;5.080;2022-09-03T03:14:41;13.37;74.90
66343;DHT22;53144;51.524;5.080;2022-09-03T03:17:06;13.37;75.11
66343;DHT22;53144;51.524;5.080;2022-09-03T03:19:32;13.32;75.16
66343;DHT22;53144;51.524;5.080;2022-09-03T03:21:57;13.37;76.62
66343;DHT22;53144;51.524;5.080;2022-09-03T03:24:23;13.28;75.85
66343;DHT22;53144;51.524;5.080;2022-09-03T03:26:48;13.30;75.77
66343;DHT22;53144;51.524;5.080;2022-09-03T03:29:15;13.28;75.54
66343;DHT22;53144;51.524;5.080;2022-09-03T03:31:44;13.32;75.12
66343;DHT22;53144;51.524;5.080;2022-09-03T03:34:10;13.28;77.44
66343;DHT22;53144;51.524;5.080;2022-09-03T03:36:35;13.21;76.52
66343;DHT22;53144;51.524;5.080;2022-09-03T03:39:01;13.24;74.27
66343;DHT22;53144;51.524;5.080;2022-09-03T03:41:29;13.20;76.87
66343;DHT22;53144;51.524;5.080;2022-09-03T03:43:59;13.17;75.50
66343;DHT22;53144;51.524;5.080;2022-09-03T03:46:29;13.17;76.10
66343;DHT22;53144;51.524;5.080;2022-09-03T03:48:55;13.18;77.55
66343;DHT22;53144;51.524;5.080;2022-09-03T03:51:20;13.18;77.16
66343;DHT22;53144;51.524;5.080;2022-09-03T03:53:46;13.20;77.14
66343;DHT22;53144;51.524;5.080;2022-09-03T03:56:12;13.17;77.40
66343;DHT22;53144;51.524;5.080;2022-09-03T03:58:39;13.11;77.55
66343;DHT22;53144;51.524;5.080;2022-09-03T04:01:19;13.07;77.53
66343;DHT22;53144;51.524;5.080;2022-09-03T04:03:45;13.08;76.44
66343;DHT22;53144;51.524;5.080;2022-09-03T04:06:11;13.10;76.41
66343;DHT22;53144;51.524;5.080;2022-09-03T04:08:39;13.10;77.13
66343;DHT22;53144;51.524;5.080;2022-09-03T04:11:07;13.01;78.30
66343;DHT22;53144;51.524;5.080;2022-09-03T04:13:35;13.07;75.83
66343;DHT22;53144;51.524;5.080;2022-09-03T04:16:12;13.08;77.17
66343;DHT22;53144;51.524;5.080;2022-09-03T04:18:39;13.08;76.85
66343;DHT22;53144;51.524;5.080;2022-09-03T04:21:06;13.07;77.83
66343;DHT22;53144;51.524;5.080;2022-09-03T04:23:37;13.06;77.05
66343;DHT22;53144;51.524;5.080;2022-09-03T04:26:03;13.06;75.79
66343;DHT22;53144;51.524;5.080;2022-09-03T04:28:28;13.07;75.50
66343;DHT22;53144;51.524;5.080;2022-09-03T04:30:54;13.06;77.10
66343;DHT22;53144;51.524;5.080;2022-09-03T04:33:19;13.00;76.25
66343;DHT22;53144;51.524;5.080;2022-09-03T04:35:44;13.03;76.58
66343;DHT22;53144;51.524;5.080;2022-09-03T04:38:10;13.01;78.49
66343;DHT22;53144;51.524;5.080;2022-09-03T04:40:36;13.04;77.79
66343;DHT22;53144;51.524;5.080;2022-09-03T04:43:01;13.01;77.31
66343;DHT22;53144;51.524;5.080;2022-09-03T04:45:27;13.03;76.24
66343;DHT22;53144;51.524;5.080;2022-09-03T04:47:59;13.08;78.07
66343;DHT22;53144;51.524;5.080;2022-09-03T04:50:25;13.07;77.98
66343;DHT22;53144;51.524;5.080;2022-09-03T04:52:52;13.20;76.89
66343;DHT22;53144;51.524;5.080;2022-09-03T04:55:20;13.30;75.10
66343;DHT22;53144;51.524;5.080;2022-09-03T04:57:46;13.31;76.27
66343;DHT22;53144;51.524;5.080;2022-09-03T05:00:11;13.42;75.16
66343;DHT22;53144;51.524;5.080;2022-09-03T05:02:37;13.38;76.17
66343;DHT22;53144;51.524;5.080;2022-09-03T05:05:03;13.41;75.53
66343;DHT22;53144;51.524;5.080;2022-09-03T05:07:29;13.42;75.07
66343;DHT22;53144;51.524;5.080;2022-09-03T05:10:05;13.44;75.99
66343;DHT22;53144;51.524;5.080;2022-09-03T05:12:30;13.38;76.32
66343;DHT22;53144;51.524;5.080;2022-09-03T05:14:57;13.40;75.70
66343;DHT22;53144;51.524;5.080;2022-09-03T05:17:24;13.52;74.95
66343;DHT22;53144;51.524;5.080;2022-09-03T05:19:49;13.49;76.35
66343;DHT22;53144;51.524;5.080;2022-09-03T05:22:14;13.47;75.33
66343;DHT22;53144;51.524;5.080;2022-09-03T05:24:48;13.48;75.16
66343;DHT22;53144;51.524;5.080;2022-09-03T05:27:14;13.45;74.67
66343;DHT22;53144;51.524;5.080;2022-09-03T05:29:44;13.44;76.04
66343;DHT22;53144;51.524;5.080;2022-09-03T05:32:10;13.49;75.61
66343;DHT22;53144;51.524;5.080;2022-09-03T05:34:37;13.57;75.70
66343;DHT22;53144;51.524;5.080;2022-09-03T05:37:03;13.58;76.57
66343;DHT22;53144;51.524;5.080;2022-09-03T05:39:28;13.65;75.05
66343;DHT22;53144;51.524;5.080;2022-09-03T05:41:54;13.71;74.41
66343;DHT22;53144;51.524;5.080;2022-09-03T05:44:19;13.82;73.52
66343;DHT22;53144;51.524;5.080;2022-09-03T05:46:48;13.98;72.84
66343;DHT22;53144;51.524;5.080;2022-09-03T05:49:14;14.09;71.89
66343;DHT22;53144;51.524;5.080;2022-09-03T05:51:39;14.12;72.63
66343;DHT22;53144;51.524;5.080;2022-09-03T05:54:06;14.14;74.80
66343;DHT22;53144;51.524;5.080;2022-09-03T05:56:34;14.26;73.29
66343;DHT22;53144;51.524;5.080;2022-09-03T05:59:02;14.42;71.56
66343;DHT22;53144;51.524;5.080;2022-09-03T06:01:43;14.44;74.53
66343;DHT22;53144;51.524;5.080;2022-09-03T06:04:13;14.42;72.52
66343;DHT22;53144;51.524;5.080;2022-09-03T06:06:41;14.47;74.91
66343;DHT22;53144;51.524;5.080;2022-09-03T06:09:09;14.51;71.63
66343;DHT22;53144;51.524;5.080;2022-09-03T06:11:35;14.57;71.97
66343;DHT22;53144;51.524;5.080;2022-09-03T06:14:04;14.64;72.20
66343;DHT22;53144;51.524;5.080;2022-09-03T06:16:30;14.60;72.71
66343;DHT22;53144;51.524;5.080;2022-09-03T06:18:56;14.63;74.06
66343;DHT22;53144;51.524;5.080;2022-09-03T06:21:27;14.64;73.86
66343;DHT22;53144;51.524;5.080;2022-09-03T06:23:55;14.69;75.15
66343;DHT22;53144;51.524;5.080;2022-09-03T06:26:21;14.67;74.53
66343;DHT22;53144;51.524;5.080;2022-09-03T06:28:47;14.72;71.44
66343;DHT22;53144;51.524;5.080;2022-09-03T06:31:13;14.72;75.15
66343;DHT22;53144;51.524;5.080;2022-09-03T06:33:43;14.75;74.17
66343;DHT22;53144;51.524;5.080;2022-09-03T06:36:10;14.74;73.78
66343;DHT22;53144;51.524;5.080;2022-09-03T06:38:40;14.75;74.86
66343;DHT22;53144;51.524;5.080;2022-09-03T06:41:11;14.69;75.81
66343;DHT22;53144;51.524;5.080;2022-09-03T06:43:38;14.72;77.32
66343;DHT22;53144;51.524;5.080;2022-09-03T06:46:10;14.71;75.48
66343;DHT22;53144;51.524;5.080;2022-09-03T06:48:37;14.71;75.31
66343;DHT22;53144;51.524;5.080;2022-09-03T06:51:05;14.75;74.14
66343;DHT22;53144;51.524;5.080;2022-09-03T06:53:33;14.77;72.55
66343;DHT22;53144;51.524;5.080;2022-09-03T06:56:00;14.78;76.07
66343;DHT22;53144;51.524;5.080;2022-09-03T06:58:32;14.81;76.02
66343;DHT22;53144;51.524;5.080;2022-09-03T07:03:28;15.06;72.41
66343;DHT22;53144;51.524;5.080;2022-09-03T07:06:00;15.33;71.04
66343;DHT22;53144;51.524;5.080;2022-09-03T07:08:25;15.56;70.36
66343;DHT22;53144;51.524;5.080;2022-09-03T07:10:51;15.91;67.84
66343;DHT22;53144;51.524;5.080;2022-09-03T07:13:17;16.04;67.47
66343;DHT22;53144;51.524;5.080;2022-09-03T07:15:44;16.29;66.62
66343;DHT22;53144;51.524;5.080;2022-09-03T07:18:09;16.57;66.42
66343;DHT22;53144;51.524;5.080;2022-09-03T07:20:35;16.67;65.13
66343;DHT22;53144;51.524;5.080;2022-09-03T07:23:00;16.87;64.83
66343;DHT22;53144;51.524;5.080;2022-09-03T07:25:26;17.18;63.54
66343;DHT22;53144;51.524;5.080;2022-09-03T07:27:52;17.39;63.41
66343;DHT22;53144;51.524;5.080;2022-09-03T07:30:17;17.28;63.24
66343;DHT22;53144;51.524;5.080;2022-09-03T07:32:46;17.49;62.15
66343;DHT22;53144;51.524;5.080;2022-09-03T07:35:12;17.42;62.71
66343;DHT22;53144;51.524;5.080;2022-09-03T07:37:42;17.65;62.53
66343;DHT22;53144;51.524;5.080;2022-09-03T07:40:09;17.79;62.07
66343;DHT22;53144;51.524;5.080;2022-09-03T07:42:35;18.10;61.27
66343;DHT22;53144;51.524;5.080;2022-09-03T07:45:25;18.33;61.34
66343;DHT22;53144;51.524;5.080;2022-09-03T07:47:52;18.57;60.27
66343;DHT22;53144;51.524;5.080;2022-09-03T07:53:30;18.89;59.32
66343;DHT22;53144;51.524;5.080;2022-09-03T07:56:06;18.91;58.56
66343;DHT22;53144;51.524;5.080;2022-09-03T07:58:33;19.09;57.26
66343;DHT22;53144;51.524;5.080;2022-09-03T08:01:17;19.20;56.57
66343;DHT22;53144;51.524;5.080;2022-09-03T08:03:45;19.20;57.06
66343;DHT22;53144;51.524;5.080;2022-09-03T08:06:12;19.37;57.13
66343;DHT22;53144;51.524;5.080;2022-09-03T08:08:38;19.39;57.20
66343;DHT22;53144;51.524;5.080;2022-09-03T08:11:18;19.46;56.52
66343;DHT22;53144;51.524;5.080;2022-09-03T08:13:53;19.56;56.39
66343;DHT22;53144;51.524;5.080;2022-09-03T08:16:19;19.66;56.01
66343;DHT22;53144;51.524;5.080;2022-09-03T08:18:44;19.66;55.85
66343;DHT22;53144;51.524;5.080;2022-09-03T08:21:16;19.91;55.60
66343;DHT22;53144;51.524;5.080;2022-09-03T08:23:44;20.21;54.98
66343;DHT22;53144;51.524;5.080;2022-09-03T08:26:10;20.37;54.99
66343;DHT22;53144;51.524;5.080;2022-09-03T08:28:37;20.47;54.83
66343;DHT22;53144;51.524;5.080;2022-09-03T08:36:38;20.63;54.36
66343;DHT22;53144;51.524;5.080;2022-09-03T08:39:06;20.60;54.14
66343;DHT22;53144;51.524;5.080;2022-09-03T08:44:51;20.77;54.75
66343;DHT22;53144;51.524;5.080;2022-09-03T08:50:53;21.05;53.41
66343;DHT22;53144;51.524;5.080;2022-09-03T08:55:52;21.14;53.36
66343;DHT22;53144;51.524;5.080;2022-09-03T08:58:25;21.18;52.87
66343;DHT22;53144;51.524;5.080;2022-09-03T09:01:28;21.15;52.54
66343;DHT22;53144;51.524;5.080;2022-09-03T09:07:23;21.39;50.81
66343;DHT22;53144;51.524;5.080;2022-09-03T09:13:12;21.55;49.79
66343;DHT22;53144;51.524;5.080;2022-09-03T09:16:21;21.63;51.81
66343;DHT22;53144;51.524;5.080;2022-09-03T09:22:01;21.96;50.59
66343;DHT22;53144;51.524;5.080;2022-09-03T09:24:34;21.99;50.23
66343;DHT22;53144;51.524;5.080;2022-09-03T09:27:04;22.04;50.16
66343;DHT22;53144;51.524;5.080;2022-09-03T09:29:36;22.03;50.20
66343;DHT22;53144;51.524;5.080;2022-09-03T09:32:02;22.07;49.75
66343;DHT22;53144;51.524;5.080;2022-09-03T09:34:33;22.20;49.87
66343;DHT22;53144;51.524;5.080;2022-09-03T09:37:03;22.18;49.49
66343;DHT22;53144;51.524;5.080;2022-09-03T09:39:28;22.30;49.63
66343;DHT22;53144;51.524;5.080;2022-09-03T09:41:59;22.50;50.13
66343;DHT22;53144;51.524;5.080;2022-09-03T09:44:32;22.60;49.63
66343;DHT22;53144;51.524;5.080;2022-09-03T09:47:11;22.84;50.30
66343;DHT22;53144;51.524;5.080;2022-09-03T09:49:50;22.75;48.47
66343;DHT22;53144;51.524;5.080;2022-09-03T09:52:16;22.78;49.94
66343;DHT22;53144;51.524;5.080;2022-09-03T09:54:44;22.94;49.78
66343;DHT22;53144;51.524;5.080;2022-09-03T09:57:20;22.98;47.25
66343;DHT22;53144;51.524;5.080;2022-09-03T09:59:46;22.98;49.28
66343;DHT22;53144;51.524;5.080;2022-09-03T10:02:24;23.10;48.35
66343;DHT22;53144;51.524;5.080;2022-09-03T10:05:00;23.24;47.59
66343;DHT22;53144;51.524;5.080;2022-09-03T10:07:35;23.31;46.86
66343;DHT22;53144;51.524;5.080;2022-09-03T10:10:16;23.51;48.04
66343;DHT22;53144;51.524;5.080;2022-09-03T10:12:59;23.64;47.13
66343;DHT22;53144;51.524;5.080;2022-09-03T10:21:05;26.23;41.42
66343;DHT22;53144;51.524;5.080;2022-09-03T10:23:38;27.13;40.52
66343;DHT22;53144;51.524;5.080;2022-09-03T10:26:17;26.82;41.87
66343;DHT22;53144;51.524;5.080;2022-09-03T10:28:45;27.70;42.00
66343;DHT22;53144;51.524;5.080;2022-09-03T10:37:10;28.83;37.67
66343;DHT22;53144;51.524;5.080;2022-09-03T10:45:18;28.75;36.43
66343;DHT22;53144;51.524;5.080;2022-09-03T10:50:45;28.38;39.74
66343;DHT22;53144;51.524;5.080;2022-09-03T10:53:22;29.18;36.48
66343;DHT22;53144;51.524;5.080;2022-09-03T10:58:47;30.01;35.67
66343;DHT22;53144;51.524;5.080;2022-09-03T11:01:33;29.76;35.88
66343;DHT22;53144;51.524;5.080;2022-09-03T11:07:03;30.08;35.98
66343;DHT22;53144;51.524;5.080;2022-09-03T11:09:38;30.43;33.51
66343;DHT22;53144;51.524;5.080;2022-09-03T11:12:17;30.82;35.03
66343;DHT22;53144;51.524;5.080;2022-09-03T11:14:49;31.73;32.73
66343;DHT22;53144;51.524;5.080;2022-09-03T11:17:25;29.85;35.76
66343;DHT22;53144;51.524;5.080;2022-09-03T11:20:17;30.88;33.52
66343;DHT22;53144;51.524;5.080;2022-09-03T11:22:45;30.88;32.77
66343;DHT22;53144;51.524;5.080;2022-09-03T11:25:14;30.19;35.26
66343;DHT22;53144;51.524;5.080;2022-09-03T11:30:36;31.57;32.22
66343;DHT22;53144;51.524;5.080;2022-09-03T11:34:07;31.54;32.22
66343;DHT22;53144;51.524;5.080;2022-09-03T11:36:36;31.42;31.83
66343;DHT22;53144;51.524;5.080;2022-09-03T11:39:40;31.51;33.40
66343;DHT22;53144;51.524;5.080;2022-09-03T11:42:39;31.39;32.03
66343;DHT22;53144;51.524;5.080;2022-09-03T11:47:55;32.04;32.29
66343;DHT22;53144;51.524;5.080;2022-09-03T11:55:30;31.94;31.32
66343;DHT22;53144;51.524;5.080;2022-09-03T11:57:56;31.23;31.48
66343;DHT22;53144;51.524;5.080;2022-09-03T12:00:23;30.48;35.45
66343;DHT22;53144;51.524;5.080;2022-09-03T12:02:57;32.17;30.37
66343;DHT22;53144;51.524;5.080;2022-09-03T12:08:34;31.42;33.61
66343;DHT22;53144;51.524;5.080;2022-09-03T12:14:00;31.83;31.53
66343;DHT22;53144;51.524;5.080;2022-09-03T12:21:57;31.05;32.87
66343;DHT22;53144;51.524;5.080;2022-09-03T12:24:25;29.93;34.07
66343;DHT22;53144;51.524;5.080;2022-09-03T12:26:53;31.66;32.45
66343;DHT22;53144;51.524;5.080;2022-09-03T12:29:26;31.21;33.44
66343;DHT22;53144;51.524;5.080;2022-09-03T12:31:52;31.56;31.72
66343;DHT22;53144;51.524;5.080;2022-09-03T12:34:20;31.38;34.42
66343;DHT22;53144;51.524;5.080;2022-09-03T12:36:49;31.01;35.12
66343;DHT22;53144;51.524;5.080;2022-09-03T12:39:26;32.44;31.19
66343;DHT22;53144;51.524;5.080;2022-09-03T12:42:03;32.75;31.74
66343;DHT22;53144;51.524;5.080;2022-09-03T12:44:31;32.36;30.59
66343;DHT22;53144;51.524;5.080;2022-09-03T12:47:11;32.14;31.26
66343;DHT22;53144;51.524;5.080;2022-09-03T12:49:42;32.10;33.48
66343;DHT22;53144;51.524;5.080;2022-09-03T12:54:47;32.95;28.94
66343;DHT22;53144;51.524;5.080;2022-09-03T12:57:19;32.14;30.05
66343;DHT22;53144;51.524;5.080;2022-09-03T12:59:47;30.53;32.11
66343;DHT22;53144;51.524;5.080;2022-09-03T13:02:22;31.32;32.52
66343;DHT22;53144;51.524;5.080;2022-09-03T13:04:50;31.36;33.34
66343;DHT22;53144;51.524;5.080;2022-09-03T13:07:27;32.10;31.95
66343;DHT22;53144;51.524;5.080;2022-09-03T13:09:59;31.19;31.84
66343;DHT22;53144;51.524;5.080;2022-09-03T13:12:32;32.25;28.35
66343;DHT22;53144;51.524;5.080;2022-09-03T13:15:07;32.59;30.02
66343;DHT22;53144;51.524;5.080;2022-09-03T13:20:25;33.14;29.49
66343;DHT22;53144;51.524;5.080;2022-09-03T13:23:17;32.69;30.00
66343;DHT22;53144;51.524;5.080;2022-09-03T13:26:00;32.61;29.39
66343;DHT22;53144;51.524;5.080;2022-09-03T13:34:47;31.29;32.13
66343;DHT22;53144;51.524;5.080;2022-09-03T13:37:42;30.26;34.54
66343;DHT22;53144;51.524;5.080;2022-09-03T13:43:17;31.57;32.31
66343;DHT22;53144;51.524;5.080;2022-09-03T13:46:01;31.35;32.21
66343;DHT22;53144;51.524;5.080;2022-09-03T13:48:37;29.96;33.13
66343;DHT22;53144;51.524;5.080;2022-09-03T13:51:46;29.59;35.50
66343;DHT22;53144;51.524;5.080;2022-09-03T13:56:52;30.01;33.28
66343;DHT22;53144;51.524;5.080;2022-09-03T13:59:49;28.70;34.60
66343;DHT22;53144;51.524;5.080;2022-09-03T14:06:08;28.90;37.24
66343;DHT22;53144;51.524;5.080;2022-09-03T14:14:48;28.32;37.56
66343;DHT22;53144;51.524;5.080;2022-09-03T14:20:12;28.12;38.22
66343;DHT22;53144;51.524;5.080;2022-09-03T14:25:25;27.94;37.08
66343;DHT22;53144;51.524;5.080;2022-09-03T14:31:14;27.88;36.49
66343;DHT22;53144;51.524;5.080;2022-09-03T14:47:46;27.33;37.32
66343;DHT22;53144;51.524;5.080;2022-09-03T15:03:06;26.81;40.91
66343;DHT22;53144;51.524;5.080;2022-09-03T15:09:06;26.89;40.36
66343;DHT22;53144;51.524;5.080;2022-09-03T15:14:48;27.03;37.49
66343;DHT22;53144;51.524;5.080;2022-09-03T15:17:49;27.25;37.64
66343;DHT22;53144;51.524;5.080;2022-09-03T15:29:06;27.60;38.15
66343;DHT22;53144;51.524;5.080;2022-09-03T15:35:08;27.61;38.72
66343;DHT22;53144;51.524;5.080;2022-09-03T15:37:59;27.59;36.40
66343;DHT22;53144;51.524;5.080;2022-09-03T15:43:31;27.40;37.17
66343;DHT22;53144;51.524;5.080;2022-09-03T15:46:10;27.32;38.56
66343;DHT22;53144;51.524;5.080;2022-09-03T15:48:49;27.39;37.97
66343;DHT22;53144;51.524;5.080;2022-09-03T15:51:25;27.40;37.99
66343;DHT22;53144;51.524;5.080;2022-09-03T15:54:15;27.39;36.96
66343;DHT22;53144;51.524;5.080;2022-09-03T16:00:05;27.18;39.11
66343;DHT22;53144;51.524;5.080;2022-09-03T16:05:41;26.77;41.27
66343;DHT22;53144;51.524;5.080;2022-09-03T16:08:07;26.64;39.27
66343;DHT22;53144;51.524;5.080;2022-09-03T16:10:53;26.75;39.21
66343;DHT22;53144;51.524;5.080;2022-09-03T16:13:49;26.71;41.72
66343;DHT22;53144;51.524;5.080;2022-09-03T16:19:09;26.14;43.14
66343;DHT22;53144;51.524;5.080;2022-09-03T16:22:00;26.31;41.82
66343;DHT22;53144;51.524;5.080;2022-09-03T16:27:22;26.23;43.65
66343;DHT22;53144;51.524;5.080;2022-09-03T16:33:11;25.79;45.14
66343;DHT22;53144;51.524;5.080;2022-09-03T16:38:33;25.57;49.20
66343;DHT22;53144;51.524;5.080;2022-09-03T16:41:08;25.33;49.49
66343;DHT22;53144;51.524;5.080;2022-09-03T16:43:45;24.86;53.19
66343;DHT22;53144;51.524;5.080;2022-09-03T16:47:04;24.70;51.33
66343;DHT22;53144;51.524;5.080;2022-09-03T16:52:20;24.46;50.74
66343;DHT22;53144;51.524;5.080;2022-09-03T16:55:06;24.28;50.24
66343;DHT22;53144;51.524;5.080;2022-09-03T17:01:08;24.11;52.96
66343;DHT22;53144;51.524;5.080;2022-09-03T17:06:53;23.93;52.54
66343;DHT22;53144;51.524;5.080;2022-09-03T17:12:36;23.81;54.78
66343;DHT22;53144;51.524;5.080;2022-09-03T17:24:27;23.60;54.82
66343;DHT22;53144;51.524;5.080;2022-09-03T17:30:15;23.37;58.10
66343;DHT22;53144;51.524;5.080;2022-09-03T17:36:48;23.08;59.01
66343;DHT22;53144;51.524;5.080;2022-09-03T17:45:39;22.99;57.52
66343;DHT22;53144;51.524;5.080;2022-09-03T17:48:29;22.98;56.14
66343;DHT22;53144;51.524;5.080;2022-09-03T17:51:15;23.03;55.47
66343;DHT22;53144;51.524;5.080;2022-09-03T17:57:01;23.16;56.24
66343;DHT22;53144;51.524;5.080;2022-09-03T18:02:44;23.24;56.24
66343;DHT22;53144;51.524;5.080;2022-09-03T18:14:36;22.69;61.41
66343;DHT22;53144;51.524;5.080;2022-09-03T18:16:36;22.57;65.23
66343;DHT22;53144;51.524;5.080;2022-09-03T18:19:35;22.54;64.36
66343;DHT22;53144;51.524;5.080;2022-09-03T18:25:49;22.31;60.56
66343;DHT22;53144;51.524;5.080;2022-09-03T18:31:46;22.30;61.76
66343;DHT22;53144;51.524;5.080;2022-09-03T18:34:33;22.17;62.39
66343;DHT22;53144;51.524;5.080;2022-09-03T18:37:47;22.17;61.71
66343;DHT22;53144;51.524;5.080;2022-09-03T18:51:01;22.14;61.48
66343;DHT22;53144;51.524;5.080;2022-09-03T18:57:04;21.75;64.63
66343;DHT22;53144;51.524;5.080;2022-09-03T19:09:55;21.86;65.98
66343;DHT22;53144;51.524;5.080;2022-09-03T19:35:50;21.61;69.25
66343;DHT22;53144;51.524;5.080;2022-09-03T19:55:52;21.97;66.07
66343;DHT22;53144;51.524;5.080;2022-09-03T19:59:05;22.10;65.70
66343;DHT22;53144;51.524;5.080;2022-09-03T20:01:49;22.09;67.55
66343;DHT22;53144;51.524;5.080;2022-09-03T20:05:00;22.21;65.84
66343;DHT22;53144;51.524;5.080;2022-09-03T20:08:02;22.24;66.11
66343;DHT22;53144;51.524;5.080;2022-09-03T20:10:48;22.20;66.52
66343;DHT22;53144;51.524;5.080;2022-09-03T20:26:00;21.85;68.72
66343;DHT22;53144;51.524;5.080;2022-09-03T20:29:18;21.75;69.83
66343;DHT22;53144;51.524;5.080;2022-09-03T20:35:05;21.99;69.01
66343;DHT22;53144;51.524;5.080;2022-09-03T20:49:33;20.94;73.17
66343;DHT22;53144;51.524;5.080;2022-09-03T20:52:26;20.86;73.99
66343;DHT22;53144;51.524;5.080;2022-09-03T20:55:06;20.77;75.23
66343;DHT22;53144;51.524;5.080;2022-09-03T21:01:02;20.88;72.96
66343;DHT22;53144;51.524;5.080;2022-09-03T21:06:41;20.65;73.26
66343;DHT22;53144;51.524;5.080;2022-09-03T21:09:33;20.56;74.72
66343;DHT22;53144;51.524;5.080;2022-09-03T21:12:21;20.46;75.47
66343;DHT22;53144;51.524;5.080;2022-09-03T21:18:05;20.28;76.30
66343;DHT22;53144;51.524;5.080;2022-09-03T21:23:40;20.30;76.42
66343;DHT22;53144;51.524;5.080;2022-09-03T21:26:26;20.43;75.75
66343;DHT22;53144;51.524;5.080;2022-09-03T21:29:28;20.60;74.76
66343;DHT22;53144;51.524;5.080;2022-09-03T21:37:38;20.72;73.90
66343;DHT22;53144;51.524;5.080;2022-09-03T21:40:06;20.53;74.10
66343;DHT22;53144;51.524;5.080;2022-09-03T21:42:48;20.33;75.03
66343;DHT22;53144;51.524;5.080;2022-09-03T21:45:24;19.99;77.04
66343;DHT22;53144;51.524;5.080;2022-09-03T21:48:33;19.84;76.52
66343;DHT22;53144;51.524;5.080;2022-09-03T21:51:03;19.78;76.93
66343;DHT22;53144;51.524;5.080;2022-09-03T21:53:41;19.70;78.03
66343;DHT22;53144;51.524;5.080;2022-09-03T22:04:26;19.27;79.25
66343;DHT22;53144;51.524;5.080;2022-09-03T22:09:50;19.77;75.89
66343;DHT22;53144;51.524;5.080;2022-09-03T22:12:28;19.67;78.00
66343;DHT22;53144;51.524;5.080;2022-09-03T22:14:57;19.31;79.83
66343;DHT22;53144;51.524;5.080;2022-09-03T22:17:33;19.27;78.72
66343;DHT22;53144;51.524;5.080;2022-09-03T22:19:59;19.24;80.21
66343;DHT22;53144;51.524;5.080;2022-09-03T22:22:40;19.10;79.82
66343;DHT22;53144;51.524;5.080;2022-09-03T22:30:29;18.71;80.57
66343;DHT22;53144;51.524;5.080;2022-09-03T22:33:12;18.58;79.47
66343;DHT22;53144;51.524;5.080;2022-09-03T22:35:57;18.55;79.80
66343;DHT22;53144;51.524;5.080;2022-09-03T22:49:34;18.38;80.27
66343;DHT22;53144;51.524;5.080;2022-09-03T22:52:18;18.34;81.96
66343;DHT22;53144;51.524;5.080;2022-09-03T22:57:27;18.71;79.63
66343;DHT22;53144;51.524;5.080;2022-09-03T23:00:06;18.62;79.99
66343;DHT22;53144;51.524;5.080;2022-09-03T23:02:33;18.44;81.41
66343;DHT22;53144;51.524;5.080;2022-09-03T23:07:56;18.38;79.53
66343;DHT22;53144;51.524;5.080;2022-09-03T23:13:37;18.10;81.28
66343;DHT22;53144;51.524;5.080;2022-09-03T23:16:29;18.07;80.59